sensor_id;sensor_type;location;lat;lon;timestamp;pressure;altitude;pressure_sealevel;temperature;humidity
35878;BME280;21982;49.804;24.072;2024-02-21T00:01:05;97584.59;;;6.86;75.85
35878;BME280;21982;49.804;24.072;2024-02-21T00:03:31;97603.47;;;6.81;76.03
35878;BME280;21982;49.804;24.072;2024-02-21T00:05:56;97599.09;;;6.98;75.51
35878;BME280;21982;49.804;24.072;2024-02-21T00:08:22;97601.25;;;7.02;76.02
35878;BME280;21982;49.804;24.072;2024-02-21T00:10:47;97611.94;;;7.01;76.22
35878;BME280;21982;49.804;24.072;2024-02-21T00:13:12;97629.16;;;7.21;75.93
35878;BME280;21982;49.804;24.072;2024-02-21T00:15:38;97619.78;;;7.19;76.16
35878;BME280;21982;49.804;24.072;2024-02-21T00:18:04;97472.44;;;6.17;75.97
35878;BME280;21982;49.804;24.072;2024-02-21T00:20:30;97568.47;;;6.89;76.00
35878;BME280;21982;49.804;24.072;2024-02-21T00:22:55;97622.25;;;7.28;75.47
35878;BME280;21982;49.804;24.072;2024-02-21T00:25:21;97571.44;;;6.94;75.81
35878;BME280;21982;49.804;24.072;2024-02-21T00:27:46;97627.03;;;7.25;75.39
35878;BME280;21982;49.804;24.072;2024-02-21T00:30:12;97599.66;;;7.10;75.86
35878;BME280;21982;49.804;24.072;2024-02-21T00:32:37;97623.91;;;7.29;75.71
35878;BME280;21982;49.804;24.072;2024-02-21T00:35:03;97601.50;;;7.17;75.20
35878;BME280;21982;49.804;24.072;2024-02-21T00:37:28;97625.91;;;7.27;75.56
35878;BME280;21982;49.804;24.072;2024-02-21T00:39:54;97513.06;;;6.56;75.25
35878;BME280;21982;49.804;24.072;2024-02-21T00:42:20;97541.28;;;6.80;75.91
35878;BME280;21982;49.804;24.072;2024-02-21T00:44:46;97626.53;;;7.29;75.76
35878;BME280;21982;49.804;24.072;2024-02-21T00:47:12;97620.94;;;7.24;76.07
35878;BME280;21982;49.804;24.072;2024-02-21T00:49:37;97621.44;;;7.28;75.60
35878;BME280;21982;49.804;24.072;2024-02-21T00:52:03;97601.97;;;7.13;75.29
35878;BME280;21982;49.804;24.072;2024-02-21T00:54:28;97581.63;;;6.89;75.84
35878;BME280;21982;49.804;24.072;2024-02-21T00:56:53;97584.63;;;7.02;76.09
35878;BME280;21982;49.804;24.072;2024-02-21T00:59:19;97610.34;;;7.08;76.04
35878;BME280;21982;49.804;24.072;2024-02-21T01:01:44;97624.53;;;7.15;75.69
35878;BME280;21982;49.804;24.072;2024-02-21T01:04:10;97583.97;;;7.00;75.38
35878;BME280;21982;49.804;24.072;2024-02-21T01:06:35;97620.28;;;7.22;75.96
35878;BME280;21982;49.804;24.072;2024-02-21T01:09:01;97618.47;;;7.23;75.24
35878;BME280;21982;49.804;24.072;2024-02-21T01:11:26;97610.22;;;7.18;76.19
35878;BME280;21982;49.804;24.072;2024-02-21T01:13:52;97608.06;;;7.13;75.96
35878;BME280;21982;49.804;24.072;2024-02-21T01:16:18;97604.91;;;7.10;75.23
35878;BME280;21982;49.804;24.072;2024-02-21T01:18:43;97568.75;;;6.78;75.81
35878;BME280;21982;49.804;24.072;2024-02-21T01:21:09;97572.59;;;6.91;75.39
35878;BME280;21982;49.804;24.072;2024-02-21T01:23:36;97611.38;;;7.15;75.82
35878;BME280;21982;49.804;24.072;2024-02-21T01:26:02;97617.13;;;7.19;75.05
35878;BME280;21982;49.804;24.072;2024-02-21T01:28:27;97545.72;;;6.80;75.44
35878;BME280;21982;49.804;24.072;2024-02-21T01:30:53;97536.31;;;6.69;75.21
35878;BME280;21982;49.804;24.072;2024-02-21T01:33:18;97586.88;;;6.81;75.24
35878;BME280;21982;49.804;24.072;2024-02-21T01:35:44;97617.63;;;7.14;75.62
35878;BME280;21982;49.804;24.072;2024-02-21T01:38:09;97536.47;;;6.67;75.47
35878;BME280;21982;49.804;24.072;2024-02-21T01:40:35;97598.47;;;7.04;75.27
35878;BME280;21982;49.804;24.072;2024-02-21T01:43:02;97621.75;;;7.17;75.23
35878;BME280;21982;49.804;24.072;2024-02-21T01:45:28;97576.69;;;6.94;75.17
35878;BME280;21982;49.804;24.072;2024-02-21T01:47:53;97620.91;;;7.16;75.20
35878;BME280;21982;49.804;24.072;2024-02-21T01:50:19;97589.25;;;7.00;75.43
35878;BME280;21982;49.804;24.072;2024-02-21T01:52:46;97606.91;;;7.16;75.41
35878;BME280;21982;49.804;24.072;2024-02-21T01:55:13;97594.84;;;7.05;75.33
35878;BME280;21982;49.804;24.072;2024-02-21T01:57:40;97598.16;;;7.07;75.18
35878;BME280;21982;49.804;24.072;2024-02-21T02:00:07;97575.50;;;6.80;75.83
35878;BME280;21982;49.804;24.072;2024-02-21T02:02:32;97592.16;;;6.89;75.32
35878;BME280;21982;49.804;24.072;2024-02-21T02:04:59;97570.75;;;6.84;75.35
35878;BME280;21982;49.804;24.072;2024-02-21T02:07:25;97425.63;;;5.94;75.00
35878;BME280;21982;49.804;24.072;2024-02-21T02:09:51;97617.97;;;7.19;75.65
35878;BME280;21982;49.804;24.072;2024-02-21T02:12:16;97598.16;;;7.07;75.24
35878;BME280;21982;49.804;24.072;2024-02-21T02:14:42;97611.69;;;7.12;75.08
35878;BME280;21982;49.804;24.072;2024-02-21T02:17:07;97578.69;;;7.00;75.12
35878;BME280;21982;49.804;24.072;2024-02-21T02:19:34;97551.50;;;6.83;74.94
35878;BME280;21982;49.804;24.072;2024-02-21T02:22:09;97607.75;;;7.16;75.27
35878;BME280;21982;49.804;24.072;2024-02-21T02:24:36;97617.44;;;7.16;74.66
35878;BME280;21982;49.804;24.072;2024-02-21T02:27:02;97579.03;;;6.97;75.46
35878;BME280;21982;49.804;24.072;2024-02-21T02:29:27;97618.47;;;7.23;75.31
35878;BME280;21982;49.804;24.072;2024-02-21T02:31:52;97605.44;;;7.13;75.19
35878;BME280;21982;49.804;24.072;2024-02-21T02:34:19;97615.69;;;7.24;75.56
35878;BME280;21982;49.804;24.072;2024-02-21T02:36:45;97619.97;;;7.25;75.04
35878;BME280;21982;49.804;24.072;2024-02-21T02:39:10;97620.94;;;7.24;74.93
35878;BME280;21982;49.804;24.072;2024-02-21T02:41:36;97583.81;;;7.01;74.84
35878;BME280;21982;49.804;24.072;2024-02-21T02:44:01;97625.72;;;7.21;75.52
35878;BME280;21982;49.804;24.072;2024-02-21T02:46:27;97475.09;;;6.25;74.48
35878;BME280;21982;49.804;24.072;2024-02-21T02:48:52;97596.50;;;7.06;74.97
35878;BME280;21982;49.804;24.072;2024-02-21T02:51:17;97621.63;;;7.26;75.10
35878;BME280;21982;49.804;24.072;2024-02-21T02:53:45;97593.53;;;7.01;74.41
35878;BME280;21982;49.804;24.072;2024-02-21T02:56:15;97631.97;;;7.28;74.95
35878;BME280;21982;49.804;24.072;2024-02-21T02:58:42;97625.56;;;7.22;74.55
35878;BME280;21982;49.804;24.072;2024-02-21T03:01:07;97628.19;;;7.22;74.40
35878;BME280;21982;49.804;24.072;2024-02-21T03:03:33;97553.13;;;6.76;74.87
35878;BME280;21982;49.804;24.072;2024-02-21T03:05:58;97629.47;;;7.18;74.67
35878;BME280;21982;49.804;24.072;2024-02-21T03:08:23;97651.84;;;7.14;75.12
35878;BME280;21982;49.804;24.072;2024-02-21T03:10:49;97630.09;;;7.12;75.05
35878;BME280;21982;49.804;24.072;2024-02-21T03:13:14;97629.44;;;7.10;74.43
35878;BME280;21982;49.804;24.072;2024-02-21T03:15:40;97634.91;;;7.17;75.22
35878;BME280;21982;49.804;24.072;2024-02-21T03:18:05;97639.66;;;7.13;74.70
35878;BME280;21982;49.804;24.072;2024-02-21T03:20:31;97646.22;;;7.09;74.60
35878;BME280;21982;49.804;24.072;2024-02-21T03:22:57;97578.41;;;6.69;74.41
35878;BME280;21982;49.804;24.072;2024-02-21T03:25:23;97631.41;;;7.08;74.77
35878;BME280;21982;49.804;24.072;2024-02-21T03:27:48;97484.09;;;6.14;74.51
35878;BME280;21982;49.804;24.072;2024-02-21T03:30:14;97620.81;;;6.92;74.90
35878;BME280;21982;49.804;24.072;2024-02-21T03:32:39;97608.06;;;6.79;74.92
35878;BME280;21982;49.804;24.072;2024-02-21T03:35:05;97637.44;;;7.00;74.97
35878;BME280;21982;49.804;24.072;2024-02-21T03:37:32;97632.53;;;7.05;74.13
35878;BME280;21982;49.804;24.072;2024-02-21T03:39:57;97637.50;;;7.09;74.96
35878;BME280;21982;49.804;24.072;2024-02-21T03:42:22;97518.19;;;6.32;74.53
35878;BME280;21982;49.804;24.072;2024-02-21T03:44:48;97558.78;;;6.55;74.59
35878;BME280;21982;49.804;24.072;2024-02-21T03:47:13;97614.22;;;6.88;74.56
35878;BME280;21982;49.804;24.072;2024-02-21T03:49:40;97625.25;;;6.91;74.69
35878;BME280;21982;49.804;24.072;2024-02-21T03:52:07;97644.84;;;6.97;74.43
35878;BME280;21982;49.804;24.072;2024-02-21T03:54:34;97643.84;;;6.98;74.68
35878;BME280;21982;49.804;24.072;2024-02-21T03:56:59;97565.03;;;6.54;74.17
35878;BME280;21982;49.804;24.072;2024-02-21T03:59:24;97627.53;;;6.94;74.65
35878;BME280;21982;49.804;24.072;2024-02-21T04:01:53;97648.53;;;7.12;74.33
35878;BME280;21982;49.804;24.072;2024-02-21T04:04:19;97636.97;;;7.05;74.34
35878;BME280;21982;49.804;24.072;2024-02-21T04:06:50;97584.19;;;6.72;74.68
35878;BME280;21982;49.804;24.072;2024-02-21T04:09:16;97603.28;;;6.75;74.02
35878;BME280;21982;49.804;24.072;2024-02-21T04:11:42;97620.59;;;6.85;74.72
35878;BME280;21982;49.804;24.072;2024-02-21T04:14:07;97646.03;;;7.02;73.89
35878;BME280;21982;49.804;24.072;2024-02-21T04:16:34;97650.78;;;6.99;74.32
35878;BME280;21982;49.804;24.072;2024-02-21T04:18:59;97636.09;;;6.88;74.65
35878;BME280;21982;49.804;24.072;2024-02-21T04:21:27;97600.28;;;6.69;74.49
35878;BME280;21982;49.804;24.072;2024-02-21T04:23:52;97632.94;;;6.85;74.38
35878;BME280;21982;49.804;24.072;2024-02-21T04:26:17;97591.19;;;6.64;74.68
35878;BME280;21982;49.804;24.072;2024-02-21T04:28:45;97562.91;;;6.58;74.47
35878;BME280;21982;49.804;24.072;2024-02-21T04:31:10;97644.00;;;6.96;74.34
35878;BME280;21982;49.804;24.072;2024-02-21T04:33:37;97645.66;;;6.97;73.89
35878;BME280;21982;49.804;24.072;2024-02-21T04:36:03;97596.31;;;6.65;74.16
35878;BME280;21982;49.804;24.072;2024-02-21T04:38:28;97640.22;;;6.91;74.25
35878;BME280;21982;49.804;24.072;2024-02-21T04:40:55;97634.63;;;6.94;74.40
35878;BME280;21982;49.804;24.072;2024-02-21T04:43:23;97611.59;;;6.62;74.54
35878;BME280;21982;49.804;24.072;2024-02-21T04:45:49;97551.84;;;6.20;74.07
35878;BME280;21982;49.804;24.072;2024-02-21T04:48:14;97647.34;;;6.72;74.36
35878;BME280;21982;49.804;24.072;2024-02-21T04:50:40;97652.16;;;6.77;73.68
35878;BME280;21982;49.804;24.072;2024-02-21T04:53:06;97629.69;;;6.65;73.69
35878;BME280;21982;49.804;24.072;2024-02-21T04:55:31;97658.19;;;6.69;74.42
35878;BME280;21982;49.804;24.072;2024-02-21T04:57:57;97653.44;;;6.73;74.32
35878;BME280;21982;49.804;24.072;2024-02-21T05:00:22;97607.72;;;6.48;73.97
35878;BME280;21982;49.804;24.072;2024-02-21T05:02:48;97607.72;;;6.48;73.92
35878;BME280;21982;49.804;24.072;2024-02-21T05:05:14;97605.03;;;6.40;74.10
35878;BME280;21982;49.804;24.072;2024-02-21T05:07:42;97643.38;;;6.68;73.69
35878;BME280;21982;49.804;24.072;2024-02-21T05:10:08;97629.66;;;6.57;74.24
35878;BME280;21982;49.804;24.072;2024-02-21T05:12:34;97660.56;;;6.81;74.57
35878;BME280;21982;49.804;24.072;2024-02-21T05:15:00;97630.22;;;6.68;74.09
35878;BME280;21982;49.804;24.072;2024-02-21T05:17:26;97604.13;;;6.49;73.81
35878;BME280;21982;49.804;24.072;2024-02-21T05:19:51;97663.72;;;6.84;73.78
35878;BME280;21982;49.804;24.072;2024-02-21T05:22:16;97640.59;;;6.70;74.07
35878;BME280;21982;49.804;24.072;2024-02-21T05:24:42;97653.94;;;6.77;73.71
35878;BME280;21982;49.804;24.072;2024-02-21T05:27:07;97633.31;;;6.64;73.38
35878;BME280;21982;49.804;24.072;2024-02-21T05:29:33;97630.22;;;6.68;73.81
35878;BME280;21982;49.804;24.072;2024-02-21T05:31:58;97647.56;;;6.79;73.60
35878;BME280;21982;49.804;24.072;2024-02-21T05:34:24;97659.88;;;6.79;73.83
35878;BME280;21982;49.804;24.072;2024-02-21T05:36:50;97662.53;;;6.79;74.37
35878;BME280;21982;49.804;24.072;2024-02-21T05:39:16;97620.59;;;6.59;74.05
35878;BME280;21982;49.804;24.072;2024-02-21T05:41:44;97669.94;;;6.83;73.55
35878;BME280;21982;49.804;24.072;2024-02-21T05:44:10;97667.84;;;6.87;74.11
35878;BME280;21982;49.804;24.072;2024-02-21T05:46:36;97528.81;;;5.96;73.92
35878;BME280;21982;49.804;24.072;2024-02-21T05:49:01;97641.47;;;6.79;73.36
35878;BME280;21982;49.804;24.072;2024-02-21T05:51:26;97592.78;;;6.49;73.92
35878;BME280;21982;49.804;24.072;2024-02-21T05:53:52;97633.00;;;6.67;73.09
35878;BME280;21982;49.804;24.072;2024-02-21T05:56:17;97608.25;;;6.52;73.39
35878;BME280;21982;49.804;24.072;2024-02-21T05:58:43;97661.06;;;6.84;73.29
35878;BME280;21982;49.804;24.072;2024-02-21T06:01:09;97671.91;;;6.81;72.95
35878;BME280;21982;49.804;24.072;2024-02-21T06:03:35;97683.34;;;6.98;72.66
35878;BME280;21982;49.804;24.072;2024-02-21T06:06:01;97702.09;;;6.95;73.23
35878;BME280;21982;49.804;24.072;2024-02-21T06:08:27;97635.31;;;6.70;73.16
35878;BME280;21982;49.804;24.072;2024-02-21T06:10:52;97686.66;;;7.00;72.66
35878;BME280;21982;49.804;24.072;2024-02-21T06:13:28;97692.28;;;7.05;72.65
35878;BME280;21982;49.804;24.072;2024-02-21T06:15:53;97663.56;;;6.86;72.75
35878;BME280;21982;49.804;24.072;2024-02-21T06:18:20;97669.50;;;6.88;72.73
35878;BME280;21982;49.804;24.072;2024-02-21T06:20:45;97691.97;;;7.08;73.04
35878;BME280;21982;49.804;24.072;2024-02-21T06:23:12;97685.06;;;7.07;71.95
35878;BME280;21982;49.804;24.072;2024-02-21T06:25:38;97692.19;;;7.15;72.13
35878;BME280;21982;49.804;24.072;2024-02-21T06:28:04;97700.06;;;7.15;72.52
35878;BME280;21982;49.804;24.072;2024-02-21T06:30:29;97703.53;;;7.15;71.84
35878;BME280;21982;49.804;24.072;2024-02-21T06:32:55;97707.50;;;7.19;71.71
35878;BME280;21982;49.804;24.072;2024-02-21T06:35:21;97713.81;;;7.26;72.31
35878;BME280;21982;49.804;24.072;2024-02-21T06:37:47;97712.47;;;7.30;71.74
35878;BME280;21982;49.804;24.072;2024-02-21T06:40:16;97704.09;;;7.27;71.06
35878;BME280;21982;49.804;24.072;2024-02-21T06:42:41;97715.47;;;7.27;71.21
35878;BME280;21982;49.804;24.072;2024-02-21T06:45:07;97718.09;;;7.27;71.19
35878;BME280;21982;49.804;24.072;2024-02-21T06:47:32;97661.22;;;6.83;71.28
35878;BME280;21982;49.804;24.072;2024-02-21T06:49:58;97721.88;;;7.25;70.93
35878;BME280;21982;49.804;24.072;2024-02-21T06:52:23;97725.47;;;7.24;70.85
35878;BME280;21982;49.804;24.072;2024-02-21T06:54:50;97710.59;;;7.15;71.49
35878;BME280;21982;49.804;24.072;2024-02-21T06:57:15;97649.50;;;6.77;70.97
35878;BME280;21982;49.804;24.072;2024-02-21T06:59:41;97673.47;;;7.00;70.73
35878;BME280;21982;49.804;24.072;2024-02-21T07:02:07;97717.06;;;7.28;71.46
35878;BME280;21982;49.804;24.072;2024-02-21T07:04:33;97609.78;;;6.62;70.90
35878;BME280;21982;49.804;24.072;2024-02-21T07:06:58;97719.91;;;7.35;70.59
35878;BME280;21982;49.804;24.072;2024-02-21T07:09:23;97672.41;;;7.11;70.36
35878;BME280;21982;49.804;24.072;2024-02-21T07:11:49;97724.03;;;7.37;70.37
35878;BME280;21982;49.804;24.072;2024-02-21T07:14:15;97528.63;;;6.16;70.46
35878;BME280;21982;49.804;24.072;2024-02-21T07:16:41;97725.22;;;7.43;70.06
35878;BME280;21982;49.804;24.072;2024-02-21T07:19:06;97730.38;;;7.53;69.94
35878;BME280;21982;49.804;24.072;2024-02-21T07:21:32;97533.00;;;6.33;69.52
35878;BME280;21982;49.804;24.072;2024-02-21T07:23:58;97727.78;;;7.69;69.50
35878;BME280;21982;49.804;24.072;2024-02-21T07:26:23;97732.59;;;7.73;69.20
35878;BME280;21982;49.804;24.072;2024-02-21T07:28:48;97761.75;;;7.72;68.68
35878;BME280;21982;49.804;24.072;2024-02-21T07:31:14;97728.78;;;7.68;68.54
35878;BME280;21982;49.804;24.072;2024-02-21T07:33:39;97753.00;;;7.71;68.50
35878;BME280;21982;49.804;24.072;2024-02-21T07:36:10;97732.81;;;7.88;68.14
35878;BME280;21982;49.804;24.072;2024-02-21T07:38:35;97728.22;;;7.90;68.06
35878;BME280;21982;49.804;24.072;2024-02-21T07:41:01;97636.44;;;7.27;67.89
35878;BME280;21982;49.804;24.072;2024-02-21T07:43:26;97722.59;;;7.85;68.07
35878;BME280;21982;49.804;24.072;2024-02-21T07:45:52;97730.03;;;8.06;67.54
35878;BME280;21982;49.804;24.072;2024-02-21T07:48:18;97669.19;;;7.83;67.02
35878;BME280;21982;49.804;24.072;2024-02-21T07:50:44;97675.81;;;8.03;66.67
35878;BME280;21982;49.804;24.072;2024-02-21T07:53:09;97668.56;;;7.89;66.24
35878;BME280;21982;49.804;24.072;2024-02-21T07:55:35;97640.97;;;7.59;66.14
35878;BME280;21982;49.804;24.072;2024-02-21T07:58:00;97730.41;;;8.19;66.05
35878;BME280;21982;49.804;24.072;2024-02-21T08:00:26;97719.00;;;8.11;65.80
35878;BME280;21982;49.804;24.072;2024-02-21T08:02:51;97527.25;;;7.14;65.87
35878;BME280;21982;49.804;24.072;2024-02-21T08:05:17;97720.56;;;8.54;64.89
35878;BME280;21982;49.804;24.072;2024-02-21T08:07:42;97722.72;;;8.58;65.35
35878;BME280;21982;49.804;24.072;2024-02-21T08:10:08;97724.69;;;8.56;64.69
35878;BME280;21982;49.804;24.072;2024-02-21T08:12:34;97721.72;;;8.43;64.30
35878;BME280;21982;49.804;24.072;2024-02-21T08:15:00;97704.22;;;8.26;64.16
35878;BME280;21982;49.804;24.072;2024-02-21T08:17:25;97676.81;;;8.11;63.58
35878;BME280;21982;49.804;24.072;2024-02-21T08:19:51;97715.44;;;8.28;63.51
35878;BME280;21982;49.804;24.072;2024-02-21T08:22:16;97723.66;;;8.17;63.81
35878;BME280;21982;49.804;24.072;2024-02-21T08:24:41;97716.53;;;8.09;63.75
35878;BME280;21982;49.804;24.072;2024-02-21T08:27:07;97685.34;;;7.88;63.61
35878;BME280;21982;49.804;24.072;2024-02-21T08:29:32;97727.56;;;8.04;62.80
35878;BME280;21982;49.804;24.072;2024-02-21T08:31:58;97679.06;;;7.73;63.49
35878;BME280;21982;49.804;24.072;2024-02-21T08:34:23;97633.88;;;7.52;63.22
35878;BME280;21982;49.804;24.072;2024-02-21T08:36:48;97718.00;;;8.03;63.05
35878;BME280;21982;49.804;24.072;2024-02-21T08:39:14;97688.63;;;7.82;63.00
35878;BME280;21982;49.804;24.072;2024-02-21T08:41:42;97693.28;;;7.88;62.62
35878;BME280;21982;49.804;24.072;2024-02-21T08:44:08;97719.97;;;7.93;62.67
35878;BME280;21982;49.804;24.072;2024-02-21T08:46:33;97719.63;;;7.88;63.18
35878;BME280;21982;49.804;24.072;2024-02-21T08:48:59;97721.94;;;7.83;62.40
35878;BME280;21982;49.804;24.072;2024-02-21T08:51:24;97720.94;;;7.84;62.25
35878;BME280;21982;49.804;24.072;2024-02-21T08:53:49;97638.25;;;7.35;62.67
35878;BME280;21982;49.804;24.072;2024-02-21T08:56:15;97591.31;;;7.22;62.18
35878;BME280;21982;49.804;24.072;2024-02-21T08:58:41;97600.34;;;7.28;61.96
35878;BME280;21982;49.804;24.072;2024-02-21T09:01:07;97711.50;;;8.48;62.09
35878;BME280;21982;49.804;24.072;2024-02-21T09:03:36;97675.22;;;8.42;61.63
35878;BME280;21982;49.804;24.072;2024-02-21T09:06:03;97676.19;;;8.65;61.12
35878;BME280;21982;49.804;24.072;2024-02-21T09:08:28;97713.41;;;9.11;60.62
35878;BME280;21982;49.804;24.072;2024-02-21T09:10:54;97542.59;;;8.32;60.53
35878;BME280;21982;49.804;24.072;2024-02-21T09:13:19;97654.75;;;9.24;59.93
35878;BME280;21982;49.804;24.072;2024-02-21T09:15:45;97647.19;;;9.13;59.41
35878;BME280;21982;49.804;24.072;2024-02-21T09:18:10;97648.69;;;9.07;59.58
35878;BME280;21982;49.804;24.072;2024-02-21T09:20:36;97633.31;;;9.11;59.57
35878;BME280;21982;49.804;24.072;2024-02-21T09:23:01;97698.75;;;9.48;59.34
35878;BME280;21982;49.804;24.072;2024-02-21T09:25:27;97715.50;;;9.71;59.03
35878;BME280;21982;49.804;24.072;2024-02-21T09:27:54;97721.72;;;9.86;58.24
35878;BME280;21982;49.804;24.072;2024-02-21T09:30:19;97680.78;;;9.74;58.31
35878;BME280;21982;49.804;24.072;2024-02-21T09:32:45;97656.72;;;9.69;57.73
35878;BME280;21982;49.804;24.072;2024-02-21T09:35:10;97719.94;;;10.09;57.70
35878;BME280;21982;49.804;24.072;2024-02-21T09:37:38;97722.66;;;10.01;57.22
35878;BME280;21982;49.804;24.072;2024-02-21T09:40:03;97719.38;;;9.91;57.04
35878;BME280;21982;49.804;24.072;2024-02-21T09:42:48;97724.38;;;9.86;57.07
35878;BME280;21982;49.804;24.072;2024-02-21T09:45:21;97723.75;;;9.76;57.16
35878;BME280;21982;49.804;24.072;2024-02-21T09:50:20;97697.06;;;9.63;57.11
35878;BME280;21982;49.804;24.072;2024-02-21T09:52:48;97712.97;;;9.86;57.03
35878;BME280;21982;49.804;24.072;2024-02-21T09:55:13;97712.78;;;9.87;56.76
35878;BME280;21982;49.804;24.072;2024-02-21T09:57:40;97722.31;;;10.04;56.34
35878;BME280;21982;49.804;24.072;2024-02-21T10:00:06;97722.75;;;10.08;56.32
35878;BME280;21982;49.804;24.072;2024-02-21T10:02:35;97721.22;;;10.14;56.13
35878;BME280;21982;49.804;24.072;2024-02-21T10:05:00;97688.09;;;10.03;55.83
35878;BME280;21982;49.804;24.072;2024-02-21T10:07:26;97700.22;;;10.20;55.48
35878;BME280;21982;49.804;24.072;2024-02-21T10:10:04;97667.94;;;10.25;55.65
35878;BME280;21982;49.804;24.072;2024-02-21T10:12:29;97709.41;;;10.32;55.34
35878;BME280;21982;49.804;24.072;2024-02-21T10:15:05;97684.31;;;9.97;55.06
35878;BME280;21982;49.804;24.072;2024-02-21T10:17:34;97630.03;;;9.48;55.12
35878;BME280;21982;49.804;24.072;2024-02-21T10:20:09;97514.47;;;9.02;55.20
35878;BME280;21982;49.804;24.072;2024-02-21T10:22:35;97622.44;;;9.75;54.97
35878;BME280;21982;49.804;24.072;2024-02-21T10:25:12;97695.56;;;10.22;54.92
35878;BME280;21982;49.804;24.072;2024-02-21T10:27:40;97705.31;;;9.99;54.91
35878;BME280;21982;49.804;24.072;2024-02-21T10:30:13;97633.31;;;9.50;54.85
35878;BME280;21982;49.804;24.072;2024-02-21T10:32:53;97688.84;;;9.81;54.93
35878;BME280;21982;49.804;24.072;2024-02-21T10:35:29;97686.72;;;9.76;55.30
35878;BME280;21982;49.804;24.072;2024-02-21T10:37:56;97688.63;;;9.67;55.35
35878;BME280;21982;49.804;24.072;2024-02-21T10:40:25;97583.88;;;8.96;54.53
35878;BME280;21982;49.804;24.072;2024-02-21T10:42:57;97699.41;;;9.50;55.34
35878;BME280;21982;49.804;24.072;2024-02-21T10:45:35;97681.41;;;9.53;55.44
35878;BME280;21982;49.804;24.072;2024-02-21T10:50:56;97668.59;;;9.96;55.74
35878;BME280;21982;49.804;24.072;2024-02-21T10:54:05;97660.28;;;10.30;55.13
35878;BME280;21982;49.804;24.072;2024-02-21T10:56:32;97623.78;;;10.17;54.55
35878;BME280;21982;49.804;24.072;2024-02-21T10:59:02;97615.63;;;9.81;54.17
35878;BME280;21982;49.804;24.072;2024-02-21T11:01:28;97622.19;;;9.62;54.35
35878;BME280;21982;49.804;24.072;2024-02-21T11:03:59;97596.59;;;9.63;54.80
35878;BME280;21982;49.804;24.072;2024-02-21T11:06:26;97641.84;;;10.14;54.45
35878;BME280;21982;49.804;24.072;2024-02-21T11:11:27;97590.31;;;12.14;53.00
35878;BME280;21982;49.804;24.072;2024-02-21T11:13:52;97562.75;;;12.64;50.87
35878;BME280;21982;49.804;24.072;2024-02-21T11:16:22;97632.78;;;14.34;49.62
35878;BME280;21982;49.804;24.072;2024-02-21T11:18:48;97626.44;;;15.66;48.27
35878;BME280;21982;49.804;24.072;2024-02-21T11:21:15;97588.34;;;16.71;46.82
35878;BME280;21982;49.804;24.072;2024-02-21T11:23:40;97606.78;;;18.19;44.92
35878;BME280;21982;49.804;24.072;2024-02-21T11:26:06;97615.16;;;19.34;42.84
35878;BME280;21982;49.804;24.072;2024-02-21T11:28:32;97618.75;;;20.20;40.87
35878;BME280;21982;49.804;24.072;2024-02-21T11:31:08;97477.19;;;19.64;40.62
35878;BME280;21982;49.804;24.072;2024-02-21T11:33:34;97614.81;;;20.11;39.62
35878;BME280;21982;49.804;24.072;2024-02-21T11:36:01;97551.56;;;18.41;39.89
35878;BME280;21982;49.804;24.072;2024-02-21T11:38:26;97576.81;;;16.96;40.87
35878;BME280;21982;49.804;24.072;2024-02-21T11:40:51;97600.34;;;15.68;42.43
35878;BME280;21982;49.804;24.072;2024-02-21T11:43:17;97553.06;;;14.20;43.71
35878;BME280;21982;49.804;24.072;2024-02-21T11:45:42;97600.72;;;13.88;45.00
35878;BME280;21982;49.804;24.072;2024-02-21T11:48:08;97551.00;;;13.21;45.29
35878;BME280;21982;49.804;24.072;2024-02-21T11:50:37;97587.34;;;13.49;45.13
35878;BME280;21982;49.804;24.072;2024-02-21T11:53:05;97527.84;;;13.96;44.92
35878;BME280;21982;49.804;24.072;2024-02-21T11:55:30;97588.31;;;14.61;43.99
35878;BME280;21982;49.804;24.072;2024-02-21T11:57:56;97560.03;;;14.07;43.55
35878;BME280;21982;49.804;24.072;2024-02-21T12:00:22;97078.75;;;10.45;43.60
35878;BME280;21982;49.804;24.072;2024-02-21T12:02:50;97563.69;;;13.26;44.12
35878;BME280;21982;49.804;24.072;2024-02-21T12:05:16;97582.44;;;13.11;44.31
35878;BME280;21982;49.804;24.072;2024-02-21T12:07:42;97570.59;;;12.45;44.24
35878;BME280;21982;49.804;24.072;2024-02-21T12:10:12;97583.50;;;12.26;44.84
35878;BME280;21982;49.804;24.072;2024-02-21T12:12:38;97584.72;;;12.24;45.54
35878;BME280;21982;49.804;24.072;2024-02-21T12:15:05;97563.31;;;12.60;45.36
35878;BME280;21982;49.804;24.072;2024-02-21T12:17:33;97525.03;;;12.82;44.86
35878;BME280;21982;49.804;24.072;2024-02-21T12:20:01;97563.75;;;12.63;44.29
35878;BME280;21982;49.804;24.072;2024-02-21T12:22:29;97527.09;;;11.75;44.92
35878;BME280;21982;49.804;24.072;2024-02-21T12:24:58;97569.47;;;11.68;45.69
35878;BME280;21982;49.804;24.072;2024-02-21T12:27:23;97482.91;;;10.89;45.88
35878;BME280;21982;49.804;24.072;2024-02-21T12:29:49;97562.19;;;11.56;46.36
35878;BME280;21982;49.804;24.072;2024-02-21T12:32:14;97572.81;;;12.41;45.48
35878;BME280;21982;49.804;24.072;2024-02-21T12:34:40;97520.41;;;12.00;45.02
35878;BME280;21982;49.804;24.072;2024-02-21T12:37:05;97562.03;;;12.00;45.34
35878;BME280;21982;49.804;24.072;2024-02-21T12:39:32;97533.66;;;11.79;45.11
35878;BME280;21982;49.804;24.072;2024-02-21T12:42:03;97557.59;;;11.64;45.45
35878;BME280;21982;49.804;24.072;2024-02-21T12:44:28;97557.13;;;11.39;45.86
35878;BME280;21982;49.804;24.072;2024-02-21T12:46:54;97532.13;;;11.13;45.60
35878;BME280;21982;49.804;24.072;2024-02-21T12:49:25;97545.44;;;11.19;46.00
35878;BME280;21982;49.804;24.072;2024-02-21T12:51:55;97550.78;;;11.04;46.30
35878;BME280;21982;49.804;24.072;2024-02-21T12:54:20;97539.19;;;10.91;46.27
35878;BME280;21982;49.804;24.072;2024-02-21T12:56:47;97533.63;;;10.86;46.39
35878;BME280;21982;49.804;24.072;2024-02-21T12:59:15;97543.41;;;11.00;46.38
35878;BME280;21982;49.804;24.072;2024-02-21T13:01:41;97536.81;;;10.96;46.48